sensor_id;sensor_type;location;lat;lon;timestamp;P1;durP1;ratioP1;P2;durP2;ratioP2
8349;SDS011;60699;48.946;8.412;2023-05-10T00:00:26;1.00;;;1.00;;
8349;SDS011;60699;48.946;8.412;2023-05-10T00:02:53;1.50;;;1.08;;
8349;SDS011;60699;48.946;8.412;2023-05-10T00:05:20;1.00;;;1.00;;
8349;SDS011;60699;48.946;8.412;2023-05-10T00:07:47;1.10;;;1.00;;
8349;SDS011;60699;48.946;8.412;2023-05-10T00:10:14;0.90;;;0.90;;
8349;SDS011;60699;48.946;8.412;2023-05-10T00:12:41;1.02;;;1.02;;
8349;SDS011;60699;48.946;8.412;2023-05-10T00:15:08;1.50;;;1.40;;
8349;SDS011;60699;48.946;8.412;2023-05-10T00:17:37;1.37;;;1.30;;
8349;SDS011;60699;48.946;8.412;2023-05-10T00:20:05;1.10;;;1.10;;
8349;SDS011;60699;48.946;8.412;2023-05-10T00:22:32;1.50;;;1.40;;
8349;SDS011;60699;48.946;8.412;2023-05-10T00:24:59;1.80;;;1.37;;
8349;SDS011;60699;48.946;8.412;2023-05-10T00:27:26;1.40;;;1.30;;
8349;SDS011;60699;48.946;8.412;2023-05-10T00:29:53;1.17;;;1.17;;
8349;SDS011;60699;48.946;8.412;2023-05-10T00:32:20;1.23;;;1.20;;
8349;SDS011;60699;48.946;8.412;2023-05-10T00:34:48;1.00;;;1.00;;
8349;SDS011;60699;48.946;8.412;2023-05-10T00:37:15;1.20;;;1.10;;
8349;SDS011;60699;48.946;8.412;2023-05-10T00:39:42;1.20;;;1.20;;
8349;SDS011;60699;48.946;8.412;2023-05-10T00:42:09;1.50;;;1.40;;
8349;SDS011;60699;48.946;8.412;2023-05-10T00:44:37;1.60;;;1.33;;
8349;SDS011;60699;48.946;8.412;2023-05-10T00:47:04;1.47;;;1.33;;
8349;SDS011;60699;48.946;8.412;2023-05-10T00:49:31;1.57;;;1.20;;
8349;SDS011;60699;48.946;8.412;2023-05-10T00:52:00;1.40;;;1.30;;
8349;SDS011;60699;48.946;8.412;2023-05-10T00:54:28;1.57;;;1.47;;
8349;SDS011;60699;48.946;8.412;2023-05-10T00:56:55;1.70;;;1.60;;
8349;SDS011;60699;48.946;8.412;2023-05-10T00:59:22;1.23;;;1.17;;
8349;SDS011;60699;48.946;8.412;2023-05-10T01:01:50;1.57;;;1.47;;
8349;SDS011;60699;48.946;8.412;2023-05-10T01:04:17;1.50;;;1.40;;
8349;SDS011;60699;48.946;8.412;2023-05-10T01:06:45;1.48;;;1.38;;
8349;SDS011;60699;48.946;8.412;2023-05-10T01:09:13;1.73;;;1.63;;
8349;SDS011;60699;48.946;8.412;2023-05-10T01:11:40;2.38;;;2.17;;
8349;SDS011;60699;48.946;8.412;2023-05-10T01:14:07;1.60;;;1.50;;
8349;SDS011;60699;48.946;8.412;2023-05-10T01:16:35;1.60;;;1.50;;
8349;SDS011;60699;48.946;8.412;2023-05-10T01:19:03;1.63;;;1.52;;
8349;SDS011;60699;48.946;8.412;2023-05-10T01:21:32;2.08;;;1.90;;
8349;SDS011;60699;48.946;8.412;2023-05-10T01:26:55;2.05;;;1.85;;
8349;SDS011;60699;48.946;8.412;2023-05-10T01:29:38;2.08;;;1.80;;
8349;SDS011;60699;48.946;8.412;2023-05-10T01:32:17;1.40;;;1.30;;
8349;SDS011;60699;48.946;8.412;2023-05-10T01:34:48;2.35;;;2.00;;
8349;SDS011;60699;48.946;8.412;2023-05-10T01:37:20;1.55;;;1.45;;
8349;SDS011;60699;48.946;8.412;2023-05-10T01:39:49;1.70;;;1.60;;
8349;SDS011;60699;48.946;8.412;2023-05-10T01:42:21;1.65;;;1.30;;
8349;SDS011;60699;48.946;8.412;2023-05-10T01:44:49;1.58;;;1.48;;
8349;SDS011;60699;48.946;8.412;2023-05-10T01:47:22;1.63;;;1.52;;
8349;SDS011;60699;48.946;8.412;2023-05-10T01:49:52;1.75;;;1.65;;
8349;SDS011;60699;48.946;8.412;2023-05-10T01:52:22;1.60;;;1.50;;
8349;SDS011;60699;48.946;8.412;2023-05-10T01:54:53;2.30;;;2.05;;
8349;SDS011;60699;48.946;8.412;2023-05-10T01:57:22;2.10;;;2.00;;
8349;SDS011;60699;48.946;8.412;2023-05-10T01:59:51;1.88;;;1.77;;
8349;SDS011;60699;48.946;8.412;2023-05-10T02:02:20;1.30;;;1.20;;
8349;SDS011;60699;48.946;8.412;2023-05-10T02:04:48;1.60;;;1.50;;
8349;SDS011;60699;48.946;8.412;2023-05-10T02:07:16;1.90;;;1.80;;
8349;SDS011;60699;48.946;8.412;2023-05-10T02:09:44;1.70;;;1.50;;
8349;SDS011;60699;48.946;8.412;2023-05-10T02:12:12;1.70;;;1.60;;
8349;SDS011;60699;48.946;8.412;2023-05-10T02:14:40;1.80;;;1.70;;
8349;SDS011;60699;48.946;8.412;2023-05-10T02:17:08;2.40;;;1.77;;
8349;SDS011;60699;48.946;8.412;2023-05-10T02:19:38;1.87;;;1.77;;
8349;SDS011;60699;48.946;8.412;2023-05-10T02:22:05;1.73;;;1.63;;
8349;SDS011;60699;48.946;8.412;2023-05-10T02:24:33;1.67;;;1.57;;
8349;SDS011;60699;48.946;8.412;2023-05-10T02:27:01;2.00;;;1.90;;
8349;SDS011;60699;48.946;8.412;2023-05-10T02:29:29;1.97;;;1.73;;
8349;SDS011;60699;48.946;8.412;2023-05-10T02:31:58;2.27;;;2.00;;
8349;SDS011;60699;48.946;8.412;2023-05-10T02:34:26;2.50;;;1.67;;
8349;SDS011;60699;48.946;8.412;2023-05-10T02:36:55;2.43;;;2.23;;
8349;SDS011;60699;48.946;8.412;2023-05-10T02:39:23;2.20;;;2.00;;
8349;SDS011;60699;48.946;8.412;2023-05-10T02:41:51;2.47;;;2.28;;
8349;SDS011;60699;48.946;8.412;2023-05-10T02:44:20;2.55;;;2.10;;
8349;SDS011;60699;48.946;8.412;2023-05-10T02:46:47;1.98;;;1.88;;
8349;SDS011;60699;48.946;8.412;2023-05-10T02:49:14;2.22;;;2.13;;
8349;SDS011;60699;48.946;8.412;2023-05-10T02:51:41;2.13;;;2.03;;
8349;SDS011;60699;48.946;8.412;2023-05-10T02:54:11;2.83;;;2.63;;
8349;SDS011;60699;48.946;8.412;2023-05-10T02:56:40;5.17;;;2.57;;
8349;SDS011;60699;48.946;8.412;2023-05-10T02:59:09;2.60;;;2.40;;
8349;SDS011;60699;48.946;8.412;2023-05-10T03:01:36;2.00;;;1.90;;
8349;SDS011;60699;48.946;8.412;2023-05-10T03:04:03;2.33;;;2.10;;
8349;SDS011;60699;48.946;8.412;2023-05-10T03:06:31;2.20;;;2.00;;
8349;SDS011;60699;48.946;8.412;2023-05-10T03:08:58;2.73;;;2.53;;
8349;SDS011;60699;48.946;8.412;2023-05-10T03:11:31;2.50;;;2.30;;
8349;SDS011;60699;48.946;8.412;2023-05-10T03:14:04;2.80;;;2.50;;
8349;SDS011;60699;48.946;8.412;2023-05-10T03:16:35;3.10;;;2.55;;
8349;SDS011;60699;48.946;8.412;2023-05-10T03:19:06;1.88;;;1.77;;
8349;SDS011;60699;48.946;8.412;2023-05-10T03:21:33;3.40;;;2.50;;
8349;SDS011;60699;48.946;8.412;2023-05-10T03:24:05;2.85;;;2.38;;
8349;SDS011;60699;48.946;8.412;2023-05-10T03:26:35;4.90;;;2.30;;
8349;SDS011;60699;48.946;8.412;2023-05-10T03:29:03;2.47;;;2.27;;
8349;SDS011;60699;48.946;8.412;2023-05-10T03:31:31;2.53;;;2.33;;
8349;SDS011;60699;48.946;8.412;2023-05-10T03:33:58;2.25;;;2.15;;
8349;SDS011;60699;48.946;8.412;2023-05-10T03:36:25;2.30;;;2.20;;
8349;SDS011;60699;48.946;8.412;2023-05-10T03:38:52;3.13;;;2.10;;
8349;SDS011;60699;48.946;8.412;2023-05-10T03:41:19;1.70;;;1.60;;
8349;SDS011;60699;48.946;8.412;2023-05-10T03:43:48;2.07;;;1.77;;
8349;SDS011;60699;48.946;8.412;2023-05-10T03:46:15;2.00;;;1.90;;
8349;SDS011;60699;48.946;8.412;2023-05-10T03:48:42;1.98;;;1.88;;
8349;SDS011;60699;48.946;8.412;2023-05-10T03:51:09;1.85;;;1.75;;
8349;SDS011;60699;48.946;8.412;2023-05-10T03:53:36;1.90;;;1.80;;
8349;SDS011;60699;48.946;8.412;2023-05-10T03:56:03;2.47;;;2.00;;
8349;SDS011;60699;48.946;8.412;2023-05-10T03:58:30;1.70;;;1.60;;
8349;SDS011;60699;48.946;8.412;2023-05-10T04:00:58;1.80;;;1.70;;
8349;SDS011;60699;48.946;8.412;2023-05-10T04:03:25;2.30;;;2.10;;
8349;SDS011;60699;48.946;8.412;2023-05-10T04:05:58;2.30;;;1.63;;
8349;SDS011;60699;48.946;8.412;2023-05-10T04:08:25;3.70;;;1.95;;
8349;SDS011;60699;48.946;8.412;2023-05-10T04:10:52;1.93;;;1.83;;
8349;SDS011;60699;48.946;8.412;2023-05-10T04:13:20;1.80;;;1.70;;
8349;SDS011;60699;48.946;8.412;2023-05-10T04:15:47;2.90;;;1.87;;
8349;SDS011;60699;48.946;8.412;2023-05-10T04:18:16;2.00;;;1.90;;
8349;SDS011;60699;48.946;8.412;2023-05-10T04:20:43;2.70;;;1.90;;
8349;SDS011;60699;48.946;8.412;2023-05-10T04:23:10;1.58;;;1.48;;
8349;SDS011;60699;48.946;8.412;2023-05-10T04:25:37;2.30;;;1.60;;
8349;SDS011;60699;48.946;8.412;2023-05-10T04:28:04;2.27;;;2.17;;
8349;SDS011;60699;48.946;8.412;2023-05-10T04:30:31;2.53;;;2.33;;
8349;SDS011;60699;48.946;8.412;2023-05-10T04:32:58;2.20;;;2.00;;
8349;SDS011;60699;48.946;8.412;2023-05-10T04:35:28;2.23;;;2.00;;
8349;SDS011;60699;48.946;8.412;2023-05-10T04:37:55;1.90;;;1.80;;
8349;SDS011;60699;48.946;8.412;2023-05-10T04:40:22;2.03;;;1.93;;
8349;SDS011;60699;48.946;8.412;2023-05-10T04:42:49;2.50;;;2.30;;
8349;SDS011;60699;48.946;8.412;2023-05-10T04:45:16;2.47;;;2.27;;
8349;SDS011;60699;48.946;8.412;2023-05-10T04:47:43;2.00;;;1.90;;
8349;SDS011;60699;48.946;8.412;2023-05-10T04:50:10;3.77;;;3.43;;
8349;SDS011;60699;48.946;8.412;2023-05-10T04:52:38;2.60;;;2.30;;
8349;SDS011;60699;48.946;8.412;2023-05-10T04:55:06;2.60;;;2.40;;
8349;SDS011;60699;48.946;8.412;2023-05-10T04:57:34;3.00;;;2.70;;
8349;SDS011;60699;48.946;8.412;2023-05-10T05:00:01;3.07;;;2.77;;
8349;SDS011;60699;48.946;8.412;2023-05-10T05:02:29;2.20;;;2.00;;
8349;SDS011;60699;48.946;8.412;2023-05-10T05:04:56;2.60;;;1.93;;
8349;SDS011;60699;48.946;8.412;2023-05-10T05:07:23;2.50;;;2.30;;
8349;SDS011;60699;48.946;8.412;2023-05-10T05:09:52;2.50;;;2.30;;
8349;SDS011;60699;48.946;8.412;2023-05-10T05:12:19;2.55;;;1.95;;
8349;SDS011;60699;48.946;8.412;2023-05-10T05:14:46;2.23;;;2.13;;
8349;SDS011;60699;48.946;8.412;2023-05-10T05:17:13;2.27;;;2.10;;
8349;SDS011;60699;48.946;8.412;2023-05-10T05:19:40;2.13;;;2.03;;
8349;SDS011;60699;48.946;8.412;2023-05-10T05:22:07;2.57;;;2.37;;
8349;SDS011;60699;48.946;8.412;2023-05-10T05:24:37;2.57;;;2.37;;
8349;SDS011;60699;48.946;8.412;2023-05-10T05:27:05;6.73;;;2.37;;
8349;SDS011;60699;48.946;8.412;2023-05-10T05:29:33;2.30;;;2.10;;
8349;SDS011;60699;48.946;8.412;2023-05-10T05:32:00;3.23;;;3.03;;
8349;SDS011;60699;48.946;8.412;2023-05-10T05:34:27;4.00;;;2.80;;
8349;SDS011;60699;48.946;8.412;2023-05-10T05:36:54;2.50;;;2.30;;
8349;SDS011;60699;48.946;8.412;2023-05-10T05:39:21;1.87;;;1.77;;
8349;SDS011;60699;48.946;8.412;2023-05-10T05:41:49;2.50;;;2.30;;
8349;SDS011;60699;48.946;8.412;2023-05-10T05:44:17;3.10;;;2.33;;
8349;SDS011;60699;48.946;8.412;2023-05-10T05:46:44;2.47;;;2.27;;
8349;SDS011;60699;48.946;8.412;2023-05-10T05:49:11;3.07;;;2.30;;
8349;SDS011;60699;48.946;8.412;2023-05-10T05:51:38;2.90;;;2.03;;
8349;SDS011;60699;48.946;8.412;2023-05-10T05:54:05;1.77;;;1.67;;
8349;SDS011;60699;48.946;8.412;2023-05-10T05:56:32;2.17;;;1.90;;
8349;SDS011;60699;48.946;8.412;2023-05-10T05:58:59;2.80;;;2.60;;
8349;SDS011;60699;48.946;8.412;2023-05-10T06:01:28;2.50;;;2.30;;
8349;SDS011;60699;48.946;8.412;2023-05-10T06:03:55;2.53;;;1.97;;
8349;SDS011;60699;48.946;8.412;2023-05-10T06:06:22;2.73;;;2.53;;
8349;SDS011;60699;48.946;8.412;2023-05-10T06:08:49;2.40;;;2.30;;
8349;SDS011;60699;48.946;8.412;2023-05-10T06:11:16;2.80;;;2.50;;
8349;SDS011;60699;48.946;8.412;2023-05-10T06:13:43;2.53;;;2.30;;
8349;SDS011;60699;48.946;8.412;2023-05-10T06:16:10;3.92;;;2.17;;
8349;SDS011;60699;48.946;8.412;2023-05-10T06:18:39;3.10;;;2.73;;
8349;SDS011;60699;48.946;8.412;2023-05-10T06:21:06;2.63;;;2.43;;
8349;SDS011;60699;48.946;8.412;2023-05-10T06:23:34;3.33;;;2.10;;
8349;SDS011;60699;48.946;8.412;2023-05-10T06:26:01;2.33;;;2.13;;
8349;SDS011;60699;48.946;8.412;2023-05-10T06:28:28;2.53;;;2.33;;
8349;SDS011;60699;48.946;8.412;2023-05-10T06:30:57;3.00;;;2.80;;
8349;SDS011;60699;48.946;8.412;2023-05-10T06:33:24;4.77;;;2.53;;
8349;SDS011;60699;48.946;8.412;2023-05-10T06:35:52;3.67;;;2.20;;
8349;SDS011;60699;48.946;8.412;2023-05-10T06:38:19;2.25;;;2.15;;
8349;SDS011;60699;48.946;8.412;2023-05-10T06:40:46;2.17;;;2.08;;
8349;SDS011;60699;48.946;8.412;2023-05-10T06:43:13;2.15;;;2.00;;
8349;SDS011;60699;48.946;8.412;2023-05-10T06:45:40;2.13;;;2.03;;
8349;SDS011;60699;48.946;8.412;2023-05-10T06:48:07;2.45;;;2.28;;
8349;SDS011;60699;48.946;8.412;2023-05-10T06:50:35;2.15;;;2.05;;
8349;SDS011;60699;48.946;8.412;2023-05-10T06:53:03;2.03;;;1.88;;
8349;SDS011;60699;48.946;8.412;2023-05-10T06:55:30;1.70;;;1.60;;
8349;SDS011;60699;48.946;8.412;2023-05-10T06:57:57;7.55;;;3.55;;
8349;SDS011;60699;48.946;8.412;2023-05-10T07:00:24;1.90;;;1.80;;
8349;SDS011;60699;48.946;8.412;2023-05-10T07:02:52;2.97;;;1.58;;
8349;SDS011;60699;48.946;8.412;2023-05-10T07:05:19;2.42;;;2.15;;
8349;SDS011;60699;48.946;8.412;2023-05-10T07:07:46;2.08;;;1.92;;
8349;SDS011;60699;48.946;8.412;2023-05-10T07:10:14;1.90;;;1.75;;
8349;SDS011;60699;48.946;8.412;2023-05-10T07:12:41;2.65;;;2.10;;
8349;SDS011;60699;48.946;8.412;2023-05-10T07:15:08;2.33;;;1.70;;
8349;SDS011;60699;48.946;8.412;2023-05-10T07:17:36;1.85;;;1.75;;
8349;SDS011;60699;48.946;8.412;2023-05-10T07:20:03;1.67;;;1.52;;
8349;SDS011;60699;48.946;8.412;2023-05-10T07:22:30;2.00;;;1.50;;
8349;SDS011;60699;48.946;8.412;2023-05-10T07:24:57;1.20;;;1.13;;
8349;SDS011;60699;48.946;8.412;2023-05-10T07:27:26;1.30;;;1.20;;
8349;SDS011;60699;48.946;8.412;2023-05-10T07:29:53;2.17;;;1.97;;
8349;SDS011;60699;48.946;8.412;2023-05-10T07:32:21;1.60;;;1.50;;
8349;SDS011;60699;48.946;8.412;2023-05-10T07:34:48;2.57;;;1.63;;
8349;SDS011;60699;48.946;8.412;2023-05-10T07:37:15;1.70;;;1.60;;
8349;SDS011;60699;48.946;8.412;2023-05-10T07:39:42;1.43;;;1.33;;
8349;SDS011;60699;48.946;8.412;2023-05-10T07:42:09;1.90;;;1.47;;
8349;SDS011;60699;48.946;8.412;2023-05-10T07:44:37;2.03;;;1.60;;
8349;SDS011;60699;48.946;8.412;2023-05-10T07:47:04;1.83;;;1.63;;
8349;SDS011;60699;48.946;8.412;2023-05-10T07:49:31;1.20;;;1.20;;
8349;SDS011;60699;48.946;8.412;2023-05-10T07:51:58;2.10;;;1.47;;
8349;SDS011;60699;48.946;8.412;2023-05-10T07:54:25;2.93;;;2.83;;
8349;SDS011;60699;48.946;8.412;2023-05-10T07:56:52;1.60;;;1.50;;
8349;SDS011;60699;48.946;8.412;2023-05-10T07:59:19;1.65;;;1.55;;
8349;SDS011;60699;48.946;8.412;2023-05-10T08:01:48;1.20;;;1.10;;
8349;SDS011;60699;48.946;8.412;2023-05-10T08:04:15;1.40;;;1.30;;
8349;SDS011;60699;48.946;8.412;2023-05-10T08:06:42;1.40;;;1.30;;
8349;SDS011;60699;48.946;8.412;2023-05-10T08:09:09;1.80;;;1.70;;
8349;SDS011;60699;48.946;8.412;2023-05-10T08:11:36;3.42;;;1.88;;
8349;SDS011;60699;48.946;8.412;2023-05-10T08:14:04;2.58;;;1.40;;
8349;SDS011;60699;48.946;8.412;2023-05-10T08:16:31;1.42;;;1.33;;
8349;SDS011;60699;48.946;8.412;2023-05-10T08:19:00;5.82;;;1.20;;
8349;SDS011;60699;48.946;8.412;2023-05-10T08:21:27;1.30;;;1.30;;
8349;SDS011;60699;48.946;8.412;2023-05-10T08:23:56;1.70;;;1.60;;
8349;SDS011;60699;48.946;8.412;2023-05-10T08:26:23;1.30;;;1.30;;
8349;SDS011;60699;48.946;8.412;2023-05-10T08:28:50;1.58;;;1.48;;
8349;SDS011;60699;48.946;8.412;2023-05-10T08:31:18;1.40;;;1.30;;
8349;SDS011;60699;48.946;8.412;2023-05-10T08:33:45;1.30;;;1.20;;
8349;SDS011;60699;48.946;8.412;2023-05-10T08:36:13;1.40;;;1.30;;
8349;SDS011;60699;48.946;8.412;2023-05-10T08:38:44;3.58;;;1.20;;
8349;SDS011;60699;48.946;8.412;2023-05-10T08:41:11;1.50;;;1.40;;
8349;SDS011;60699;48.946;8.412;2023-05-10T08:43:38;1.73;;;1.33;;
8349;SDS011;60699;48.946;8.412;2023-05-10T08:46:06;1.42;;;1.30;;
8349;SDS011;60699;48.946;8.412;2023-05-10T08:48:34;1.38;;;1.27;;
8349;SDS011;60699;48.946;8.412;2023-05-10T08:51:01;1.50;;;1.40;;
8349;SDS011;60699;48.946;8.412;2023-05-10T08:53:30;1.50;;;1.40;;
8349;SDS011;60699;48.946;8.412;2023-05-10T08:56:01;1.65;;;1.10;;
8349;SDS011;60699;48.946;8.412;2023-05-10T08:58:28;1.20;;;1.20;;
8349;SDS011;60699;48.946;8.412;2023-05-10T09:00:55;2.25;;;1.50;;
8349;SDS011;60699;48.946;8.412;2023-05-10T09:03:23;1.30;;;1.23;;
8349;SDS011;60699;48.946;8.412;2023-05-10T09:05:51;2.08;;;1.88;;
8349;SDS011;60699;48.946;8.412;2023-05-10T09:08:18;2.05;;;1.30;;
8349;SDS011;60699;48.946;8.412;2023-05-10T09:10:48;1.45;;;1.35;;
8349;SDS011;60699;48.946;8.412;2023-05-10T09:13:15;2.05;;;1.60;;
8349;SDS011;60699;48.946;8.412;2023-05-10T09:15:42;1.75;;;1.65;;
8349;SDS011;60699;48.946;8.412;2023-05-10T09:18:10;1.50;;;1.40;;
8349;SDS011;60699;48.946;8.412;2023-05-10T09:20:37;1.85;;;1.75;;
8349;SDS011;60699;48.946;8.412;2023-05-10T09:23:04;1.60;;;1.50;;
8349;SDS011;60699;48.946;8.412;2023-05-10T09:25:31;1.80;;;1.70;;
8349;SDS011;60699;48.946;8.412;2023-05-10T09:28:00;2.63;;;1.63;;
8349;SDS011;60699;48.946;8.412;2023-05-10T09:30:27;1.45;;;1.35;;
8349;SDS011;60699;48.946;8.412;2023-05-10T09:32:55;1.65;;;1.55;;
8349;SDS011;60699;48.946;8.412;2023-05-10T09:35:23;1.70;;;1.35;;
8349;SDS011;60699;48.946;8.412;2023-05-10T09:37:51;3.28;;;1.42;;
8349;SDS011;60699;48.946;8.412;2023-05-10T09:40:20;1.90;;;1.80;;
8349;SDS011;60699;48.946;8.412;2023-05-10T09:42:51;1.13;;;1.13;;
8349;SDS011;60699;48.946;8.412;2023-05-10T09:45:20;1.77;;;1.63;;
8349;SDS011;60699;48.946;8.412;2023-05-10T09:47:47;1.40;;;1.30;;
8349;SDS011;60699;48.946;8.412;2023-05-10T09:50:14;1.60;;;1.50;;
8349;SDS011;60699;48.946;8.412;2023-05-10T09:52:48;3.63;;;3.30;;
8349;SDS011;60699;48.946;8.412;2023-05-10T09:55:16;1.80;;;1.70;;
8349;SDS011;60699;48.946;8.412;2023-05-10T09:57:44;2.25;;;1.55;;
8349;SDS011;60699;48.946;8.412;2023-05-10T10:00:16;1.60;;;1.50;;
8349;SDS011;60699;48.946;8.412;2023-05-10T10:05:14;2.15;;;2.05;;
8349;SDS011;60699;48.946;8.412;2023-05-10T10:07:41;1.80;;;1.70;;
8349;SDS011;60699;48.946;8.412;2023-05-10T10:10:08;2.00;;;1.90;;
8349;SDS011;60699;48.946;8.412;2023-05-10T10:12:37;3.63;;;1.52;;
8349;SDS011;60699;48.946;8.412;2023-05-10T10:15:05;1.65;;;1.55;;
8349;SDS011;60699;48.946;8.412;2023-05-10T10:17:33;2.00;;;1.90;;
8349;SDS011;60699;48.946;8.412;2023-05-10T10:20:02;2.83;;;2.63;;
8349;SDS011;60699;48.946;8.412;2023-05-10T10:22:30;2.00;;;1.70;;
8349;SDS011;60699;48.946;8.412;2023-05-10T10:24:57;2.90;;;2.05;;
8349;SDS011;60699;48.946;8.412;2023-05-10T10:27:26;2.55;;;2.35;;
8349;SDS011;60699;48.946;8.412;2023-05-10T10:30:00;2.30;;;2.20;;
8349;SDS011;60699;48.946;8.412;2023-05-10T10:32:30;4.60;;;2.97;;
8349;SDS011;60699;48.946;8.412;2023-05-10T10:35:00;3.25;;;2.75;;
8349;SDS011;60699;48.946;8.412;2023-05-10T10:37:42;2.90;;;2.05;;
8349;SDS011;60699;48.946;8.412;2023-05-10T10:40:22;3.57;;;2.43;;
8349;SDS011;60699;48.946;8.412;2023-05-10T10:42:50;3.23;;;2.93;;
8349;SDS011;60699;48.946;8.412;2023-05-10T10:45:18;3.10;;;2.83;;
8349;SDS011;60699;48.946;8.412;2023-05-10T10:47:46;3.23;;;2.93;;
8349;SDS011;60699;48.946;8.412;2023-05-10T10:50:13;3.40;;;3.10;;
8349;SDS011;60699;48.946;8.412;2023-05-10T10:52:43;3.47;;;2.23;;
8349;SDS011;60699;48.946;8.412;2023-05-10T10:55:11;6.87;;;2.87;;
8349;SDS011;60699;48.946;8.412;2023-05-10T10:57:45;3.30;;;2.50;;
8349;SDS011;60699;48.946;8.412;2023-05-10T11:00:23;3.80;;;2.50;;
8349;SDS011;60699;48.946;8.412;2023-05-10T11:02:51;3.10;;;2.50;;
8349;SDS011;60699;48.946;8.412;2023-05-10T11:05:35;2.70;;;2.50;;
8349;SDS011;60699;48.946;8.412;2023-05-10T11:08:08;2.43;;;2.23;;
8349;SDS011;60699;48.946;8.412;2023-05-10T11:10:35;2.63;;;2.43;;
8349;SDS011;60699;48.946;8.412;2023-05-10T11:13:03;2.17;;;2.00;;
8349;SDS011;60699;48.946;8.412;2023-05-10T11:15:30;2.60;;;1.83;;
8349;SDS011;60699;48.946;8.412;2023-05-10T11:17:57;2.43;;;2.13;;
8349;SDS011;60699;48.946;8.412;2023-05-10T11:20:26;2.60;;;1.93;;
8349;SDS011;60699;48.946;8.412;2023-05-10T11:22:58;3.87;;;2.30;;
8349;SDS011;60699;48.946;8.412;2023-05-10T11:25:41;2.57;;;1.87;;
8349;SDS011;60699;48.946;8.412;2023-05-10T11:28:09;2.70;;;1.73;;
8349;SDS011;60699;48.946;8.412;2023-05-10T11:30:37;1.87;;;1.77;;
8349;SDS011;60699;48.946;8.412;2023-05-10T11:33:04;2.10;;;1.90;;
8349;SDS011;60699;48.946;8.412;2023-05-10T11:35:36;1.80;;;1.70;;
8349;SDS011;60699;48.946;8.412;2023-05-10T11:38:05;1.53;;;1.43;;
8349;SDS011;60699;48.946;8.412;2023-05-10T11:40:32;1.77;;;1.67;;
8349;SDS011;60699;48.946;8.412;2023-05-10T11:43:00;1.80;;;1.70;;
8349;SDS011;60699;48.946;8.412;2023-05-10T11:45:27;1.50;;;1.40;;
8349;SDS011;60699;48.946;8.412;2023-05-10T11:47:56;1.70;;;1.60;;
8349;SDS011;60699;48.946;8.412;2023-05-10T11:50:23;1.70;;;1.60;;
8349;SDS011;60699;48.946;8.412;2023-05-10T11:52:51;1.87;;;1.60;;
8349;SDS011;60699;48.946;8.412;2023-05-10T11:55:18;1.53;;;1.43;;
8349;SDS011;60699;48.946;8.412;2023-05-10T11:57:45;2.10;;;1.63;;
8349;SDS011;60699;48.946;8.412;2023-05-10T12:00:14;2.60;;;1.40;;
8349;SDS011;60699;48.946;8.412;2023-05-10T12:02:41;1.30;;;1.23;;
8349;SDS011;60699;48.946;8.412;2023-05-10T12:05:08;1.50;;;1.40;;
8349;SDS011;60699;48.946;8.412;2023-05-10T12:07:36;1.30;;;1.27;;
8349;SDS011;60699;48.946;8.412;2023-05-10T12:10:07;1.10;;;1.10;;
8349;SDS011;60699;48.946;8.412;2023-05-10T12:12:35;2.53;;;1.52;;
8349;SDS011;60699;48.946;8.412;2023-05-10T12:15:02;1.73;;;1.63;;
8349;SDS011;60699;48.946;8.412;2023-05-10T12:17:31;1.57;;;1.47;;
8349;SDS011;60699;48.946;8.412;2023-05-10T12:19:59;2.83;;;1.53;;
8349;SDS011;60699;48.946;8.412;2023-05-10T12:22:26;7.17;;;1.40;;
8349;SDS011;60699;48.946;8.412;2023-05-10T12:24:53;1.20;;;1.20;;
8349;SDS011;60699;48.946;8.412;2023-05-10T12:27:20;1.42;;;1.33;;
8349;SDS011;60699;48.946;8.412;2023-05-10T12:29:47;1.10;;;1.10;;
8349;SDS011;60699;48.946;8.412;2023-05-10T12:32:14;1.73;;;1.40;;
8349;SDS011;60699;48.946;8.412;2023-05-10T12:34:43;1.30;;;1.20;;
8349;SDS011;60699;48.946;8.412;2023-05-10T12:37:13;1.20;;;1.10;;
8349;SDS011;60699;48.946;8.412;2023-05-10T12:39:40;1.53;;;1.43;;
8349;SDS011;60699;48.946;8.412;2023-05-10T12:42:08;1.20;;;1.13;;
8349;SDS011;60699;48.946;8.412;2023-05-10T12:44:35;1.37;;;1.27;;
8349;SDS011;60699;48.946;8.412;2023-05-10T12:47:02;1.40;;;1.30;;
8349;SDS011;60699;48.946;8.412;2023-05-10T12:49:29;1.60;;;1.50;;
8349;SDS011;60699;48.946;8.412;2023-05-10T12:51:57;2.83;;;1.97;;
8349;SDS011;60699;48.946;8.412;2023-05-10T12:54:24;1.83;;;1.73;;
8349;SDS011;60699;48.946;8.412;2023-05-10T12:56:51;1.60;;;1.50;;
8349;SDS011;60699;48.946;8.412;2023-05-10T12:59:18;1.57;;;1.47;;
8349;SDS011;60699;48.946;8.412;2023-05-10T13:01:45;1.90;;;1.77;;
8349;SDS011;60699;48.946;8.412;2023-05-10T13:04:12;1.63;;;1.50;;
8349;SDS011;60699;48.946;8.412;2023-05-10T13:06:39;1.60;;;1.50;;
8349;SDS011;60699;48.946;8.412;2023-05-10T13:09:09;1.50;;;1.40;;
8349;SDS011;60699;48.946;8.412;2023-05-10T13:11:36;2.17;;;2.07;;
8349;SDS011;60699;48.946;8.412;2023-05-10T13:14:03;1.43;;;1.33;;
8349;SDS011;60699;48.946;8.412;2023-05-10T13:16:30;1.93;;;1.83;;
8349;SDS011;60699;48.946;8.412;2023-05-10T13:18:58;1.37;;;1.30;;
8349;SDS011;60699;48.946;8.412;2023-05-10T13:21:25;1.80;;;1.60;;
8349;SDS011;60699;48.946;8.412;2023-05-10T13:23:52;2.10;;;2.00;;
8349;SDS011;60699;48.946;8.412;2023-05-10T13:26:21;1.57;;;1.47;;
8349;SDS011;60699;48.946;8.412;2023-05-10T13:28:48;1.60;;;1.50;;
8349;SDS011;60699;48.946;8.412;2023-05-10T13:31:16;1.47;;;1.37;;
8349;SDS011;60699;48.946;8.412;2023-05-10T13:33:43;1.50;;;1.40;;
8349;SDS011;60699;48.946;8.412;2023-05-10T13:36:10;1.30;;;1.20;;
8349;SDS011;60699;48.946;8.412;2023-05-10T13:38:37;1.53;;;1.43;;
8349;SDS011;60699;48.946;8.412;2023-05-10T13:41:04;1.93;;;1.83;;
8349;SDS011;60699;48.946;8.412;2023-05-10T13:43:32;1.30;;;1.30;;
8349;SDS011;60699;48.946;8.412;2023-05-10T13:46:00;5.07;;;1.40;;
8349;SDS011;60699;48.946;8.412;2023-05-10T13:48:27;2.00;;;1.53;;
8349;SDS011;60699;48.946;8.412;2023-05-10T13:50:54;1.80;;;1.70;;
8349;SDS011;60699;48.946;8.412;2023-05-10T13:53:21;1.60;;;1.50;;
8349;SDS011;60699;48.946;8.412;2023-05-10T13:55:48;1.37;;;1.27;;
8349;SDS011;60699;48.946;8.412;2023-05-10T13:58:15;2.83;;;1.93;;
8349;SDS011;60699;48.946;8.412;2023-05-10T14:00:44;3.17;;;1.70;;
8349;SDS011;60699;48.946;8.412;2023-05-10T14:03:11;1.40;;;1.30;;
8349;SDS011;60699;48.946;8.412;2023-05-10T14:05:38;1.70;;;1.60;;
8349;SDS011;60699;48.946;8.412;2023-05-10T14:08:05;1.50;;;1.40;;
8349;SDS011;60699;48.946;8.412;2023-05-10T14:10:34;1.40;;;1.30;;
8349;SDS011;60699;48.946;8.412;2023-05-10T14:13:01;1.80;;;1.70;;
8349;SDS011;60699;48.946;8.412;2023-05-10T14:15:28;2.67;;;2.00;;
8349;SDS011;60699;48.946;8.412;2023-05-10T14:17:57;1.70;;;1.37;;
8349;SDS011;60699;48.946;8.412;2023-05-10T14:20:24;1.77;;;1.67;;
8349;SDS011;60699;48.946;8.412;2023-05-10T14:22:51;1.30;;;1.20;;
8349;SDS011;60699;48.946;8.412;2023-05-10T14:25:18;6.00;;;2.70;;
8349;SDS011;60699;48.946;8.412;2023-05-10T14:27:46;1.60;;;1.50;;
8349;SDS011;60699;48.946;8.412;2023-05-10T14:30:13;1.87;;;1.40;;
8349;SDS011;60699;48.946;8.412;2023-05-10T14:32:40;1.63;;;1.53;;
8349;SDS011;60699;48.946;8.412;2023-05-10T14:35:08;2.60;;;1.70;;
8349;SDS011;60699;48.946;8.412;2023-05-10T14:37:35;1.43;;;1.33;;
8349;SDS011;60699;48.946;8.412;2023-05-10T14:40:03;1.50;;;1.33;;
8349;SDS011;60699;48.946;8.412;2023-05-10T14:42:31;1.20;;;1.10;;
8349;SDS011;60699;48.946;8.412;2023-05-10T14:44:58;2.57;;;1.33;;
8349;SDS011;60699;48.946;8.412;2023-05-10T14:47:25;1.40;;;1.30;;
8349;SDS011;60699;48.946;8.412;2023-05-10T14:49:52;2.60;;;1.57;;
8349;SDS011;60699;48.946;8.412;2023-05-10T14:52:20;1.60;;;1.37;;
8349;SDS011;60699;48.946;8.412;2023-05-10T14:54:47;1.47;;;1.37;;
8349;SDS011;60699;48.946;8.412;2023-05-10T14:57:14;1.40;;;1.30;;
8349;SDS011;60699;48.946;8.412;2023-05-10T14:59:41;1.20;;;1.10;;
8349;SDS011;60699;48.946;8.412;2023-05-10T15:02:08;1.30;;;1.20;;
8349;SDS011;60699;48.946;8.412;2023-05-10T15:04:36;1.63;;;1.50;;
8349;SDS011;60699;48.946;8.412;2023-05-10T15:07:03;1.57;;;1.00;;
8349;SDS011;60699;48.946;8.412;2023-05-10T15:09:32;1.03;;;1.00;;